Time;durP1;ratioP1;P1;durP2;ratioP2;P2;SDS_P1;SDS_P2;PMS_P1;PMS_P2;Temp;Humidity;BMP_temperature;BMP_pressure;BME280_temperature;BME280_humidity;BME280_pressure;Samples;Min_cycle;Max_cycle;Signal;HPM_P1;HPM_P2
2022/12/05 00:01:19;;;;;;;82.50;35.33;;;4.30;99.90;;;;;;5059216;28;20546;-66
2022/12/05 00:03:46;;;;;;;83.30;36.53;;;4.30;99.90;;;;;;5059215;28;20475;-65
2022/12/05 00:06:13;;;;;;;80.20;33.83;;;4.20;99.90;;;;;;5058862;28;20554;-65
2022/12/05 00:08:40;;;;;;;90.23;35.90;;;4.30;99.90;;;;;;5059890;28;20522;-67
2022/12/05 00:11:12;;;;;;;80.83;36.30;;;4.30;99.90;;;;;;5059458;28;20496;-67
2022/12/05 00:13:40;;;;;;;102.00;38.57;;;4.30;99.90;;;;;;5059682;28;20446;-66
2022/12/05 00:16:08;;;;;;;90.97;37.10;;;4.30;99.90;;;;;;5059068;28;20858;-66
2022/12/05 00:18:36;;;;;;;80.67;37.00;;;4.30;99.90;;;;;;5059217;28;20458;-66
2022/12/05 00:21:03;;;;;;;85.80;35.80;;;4.30;99.90;;;;;;5059154;28;20478;-66
2022/12/05 00:23:30;;;;;;;84.97;37.30;;;4.30;99.90;;;;;;5059345;28;20574;-66
2022/12/05 00:25:57;;;;;;;83.93;36.90;;;4.30;99.90;;;;;;5059004;28;20538;-66
2022/12/05 00:28:24;;;;;;;91.97;37.60;;;4.30;99.90;;;;;;5059284;28;20522;-66
2022/12/05 00:30:51;;;;;;;93.83;37.07;;;4.30;99.90;;;;;;5059787;28;20532;-66
2022/12/05 00:33:17;;;;;;;87.13;35.80;;;4.30;99.90;;;;;;5062633;28;20543;-65
2022/12/05 00:35:46;;;;;;;86.53;36.67;;;4.30;99.90;;;;;;5062978;28;20533;-66
2022/12/05 00:38:12;;;;;;;82.43;36.80;;;4.30;99.90;;;;;;5062751;28;20514;-65
2022/12/05 00:40:39;;;;;;;84.70;38.40;;;4.30;99.90;;;;;;5062821;28;20465;-67
2022/12/05 00:43:06;;;;;;;89.77;36.67;;;4.30;99.90;;;;;;5062529;28;20463;-66
2022/12/05 00:45:33;;;;;;;88.63;37.27;;;4.30;99.90;;;;;;5062261;28;20554;-66
2022/12/05 00:48:00;;;;;;;79.67;35.90;;;4.30;99.90;;;;;;5062499;28;20485;-66
2022/12/05 00:50:27;;;;;;;82.30;37.20;;;4.30;99.90;;;;;;5062513;28;20470;-66
2022/12/05 00:52:55;;;;;;;90.20;37.40;;;4.30;99.90;;;;;;5062617;28;20542;-66
2022/12/05 00:55:22;;;;;;;87.03;38.20;;;4.30;99.90;;;;;;5062430;28;20894;-66
2022/12/05 00:57:49;;;;;;;82.77;35.00;;;4.30;99.90;;;;;;5062278;28;20550;-65
2022/12/05 01:00:17;;;;;;;95.10;37.27;;;4.30;99.90;;;;;;5062707;28;20962;-65
2022/12/05 01:02:43;;;;;;;84.23;35.50;;;4.30;99.90;;;;;;5062271;28;20853;-66
2022/12/05 01:05:10;;;;;;;86.53;36.93;;;4.30;99.90;;;;;;5061966;28;20491;-66
2022/12/05 01:07:37;;;;;;;83.60;37.03;;;4.30;99.90;;;;;;5064506;28;20554;-66
2022/12/05 01:10:07;;;;;;;97.43;38.57;;;4.30;99.90;;;;;;5062462;28;20834;-66
2022/12/05 01:12:34;;;;;;;76.87;33.50;;;4.30;99.90;;;;;;5061777;28;20562;-66
2022/12/05 01:15:01;;;;;;;82.17;36.47;;;4.30;99.90;;;;;;5061784;28;20556;-68
2022/12/05 01:17:27;;;;;;;93.40;39.60;;;4.40;99.90;;;;;;5062893;28;20475;-67
2022/12/05 01:19:54;;;;;;;91.90;36.27;;;4.40;99.90;;;;;;5062320;28;20483;-67
2022/12/05 01:22:21;;;;;;;77.10;37.80;;;4.40;99.90;;;;;;5062217;28;20545;-67
2022/12/05 01:24:48;;;;;;;96.40;38.60;;;4.40;99.90;;;;;;5061441;28;20570;-65
2022/12/05 01:27:16;;;;;;;83.93;37.20;;;4.40;99.90;;;;;;5062036;28;20578;-66
2022/12/05 01:29:43;;;;;;;84.00;37.00;;;4.40;99.90;;;;;;5062058;28;20888;-66
2022/12/05 01:32:09;;;;;;;82.00;34.97;;;4.40;99.90;;;;;;5061530;28;20569;-66
2022/12/05 01:34:36;;;;;;;103.40;38.27;;;4.40;99.90;;;;;;5061692;28;20483;-65
2022/12/05 01:37:03;;;;;;;87.27;36.90;;;4.40;99.90;;;;;;5061807;28;20459;-66
2022/12/05 01:39:30;;;;;;;73.70;35.10;;;4.40;99.90;;;;;;5061636;28;20547;-66
2022/12/05 01:41:57;;;;;;;81.23;36.50;;;4.40;99.90;;;;;;5062220;28;20526;-66
2022/12/05 01:45:01;;;;;;;85.47;38.57;;;4.40;99.90;;;;;;5061938;28;20901;-66
2022/12/05 01:47:30;;;;;;;80.07;37.60;;;4.40;99.90;;;;;;5061415;28;20464;-67
2022/12/05 01:49:58;;;;;;;87.40;35.63;;;4.40;99.90;;;;;;5061722;28;20558;-66
2022/12/05 01:52:27;;;;;;;90.17;36.77;;;4.40;99.90;;;;;;5061665;28;20777;-66
2022/12/05 01:54:57;;;;;;;89.47;38.27;;;4.40;99.90;;;;;;5061208;28;20554;-66
2022/12/05 01:57:25;;;;;;;88.67;36.33;;;4.40;99.90;;;;;;5063157;28;20466;-66
2022/12/05 01:59:58;;;;;;;74.30;34.97;;;4.40;99.90;;;;;;5062393;28;20522;-67
2022/12/05 02:02:27;;;;;;;81.27;35.37;;;4.40;99.90;;;;;;5062100;28;20479;-66
2022/12/05 02:05:01;;;;;;;77.23;33.77;;;4.40;99.90;;;;;;5061434;28;20538;-66
2022/12/05 02:07:28;;;;;;;91.20;36.60;;;4.40;99.90;;;;;;5064152;28;20538;-66
2022/12/05 02:09:54;;;;;;;82.37;36.47;;;4.40;99.90;;;;;;5068434;28;20511;-66
2022/12/05 02:12:22;;;;;;;80.63;34.43;;;4.40;99.90;;;;;;5065313;28;20491;-66
2022/12/05 02:15:02;;;;;;;78.67;36.00;;;4.40;99.90;;;;;;5062768;28;20478;-66
2022/12/05 02:17:41;;;;;;;79.93;35.07;;;4.40;99.90;;;;;;5062517;28;20446;-66
2022/12/05 02:20:36;;;;;;;80.33;35.20;;;4.50;99.90;;;;;;5061050;28;20531;-66
2022/12/05 02:23:33;;;;;;;74.83;35.07;;;4.50;99.90;;;;;;5060697;28;20814;-66
2022/12/05 02:26:38;;;;;;;81.27;37.00;;;4.50;99.90;;;;;;5061215;28;20523;-66
2022/12/05 02:29:44;;;;;;;84.93;33.40;;;4.50;99.90;;;;;;5046294;28;20590;-66
2022/12/05 02:32:17;;;;;;;79.10;34.80;;;4.50;99.90;;;;;;5060578;28;20529;-66
2022/12/05 02:34:54;;;;;;;83.70;36.50;;;4.50;99.90;;;;;;5061008;28;20823;-67
2022/12/05 02:37:27;;;;;;;81.73;35.10;;;4.50;99.90;;;;;;5061585;28;20593;-66
2022/12/05 02:40:01;;;;;;;78.53;34.20;;;4.50;99.90;;;;;;5060477;28;20624;-67
2022/12/05 02:42:33;;;;;;;77.70;34.53;;;4.40;99.90;;;;;;5062557;28;20510;-66
2022/12/05 02:45:06;;;;;;;66.00;32.83;;;4.40;99.90;;;;;;5060455;28;20455;-66
2022/12/05 02:47:37;;;;;;;68.80;31.43;;;4.40;99.90;;;;;;5059870;28;20478;-66
2022/12/05 02:50:06;;;;;;;75.03;34.03;;;4.40;99.90;;;;;;5060177;28;20443;-66
2022/12/05 02:52:34;;;;;;;78.87;33.07;;;4.40;99.90;;;;;;5059739;28;20547;-66
2022/12/05 02:55:03;;;;;;;78.37;34.50;;;4.40;99.90;;;;;;5059766;28;20550;-66
2022/12/05 02:57:32;;;;;;;86.40;34.30;;;4.40;99.90;;;;;;5060121;28;20763;-66
2022/12/05 02:59:58;;;;;;;79.03;34.20;;;4.40;99.90;;;;;;5059251;28;20458;-67
2022/12/05 03:02:30;;;;;;;66.00;32.03;;;4.40;99.90;;;;;;5059906;28;20572;-67
2022/12/05 03:04:58;;;;;;;75.70;32.80;;;4.40;99.90;;;;;;5060372;28;20440;-66
2022/12/05 03:07:29;;;;;;;87.27;35.20;;;4.40;99.90;;;;;;5060378;28;20478;-66
2022/12/05 03:10:00;;;;;;;71.97;33.70;;;4.40;99.90;;;;;;5061455;28;20475;-67
2022/12/05 03:12:30;;;;;;;78.97;32.80;;;4.40;99.90;;;;;;5060330;28;20526;-67
2022/12/05 03:15:02;;;;;;;76.63;32.80;;;4.40;99.90;;;;;;5060004;28;20891;-67
2022/12/05 03:17:35;;;;;;;80.63;32.87;;;4.40;99.90;;;;;;5060124;28;20495;-66
2022/12/05 03:20:07;;;;;;;68.20;32.57;;;4.40;99.90;;;;;;5060532;28;20482;-66
2022/12/05 03:22:40;;;;;;;77.93;33.17;;;4.40;99.90;;;;;;5059437;28;20466;-66
2022/12/05 03:25:08;;;;;;;68.97;31.07;;;4.40;99.90;;;;;;5059308;28;20526;-66
2022/12/05 03:27:45;;;;;;;66.30;31.63;;;4.40;99.90;;;;;;5058606;28;20617;-67
2022/12/05 03:30:16;;;;;;;60.53;30.90;;;4.40;99.90;;;;;;5059300;28;20557;-65
2022/12/05 03:32:51;;;;;;;64.57;28.63;;;4.40;99.90;;;;;;5059690;28;20526;-66
2022/12/05 03:35:23;;;;;;;69.37;30.83;;;4.40;99.90;;;;;;5060579;28;20510;-66
2022/12/05 03:37:54;;;;;;;53.47;27.73;;;4.40;99.90;;;;;;5059937;28;20514;-66
2022/12/05 03:40:29;;;;;;;56.73;27.47;;;4.40;99.90;;;;;;5060144;28;20534;-66
2022/12/05 03:43:01;;;;;;;53.63;26.73;;;4.40;99.90;;;;;;5059592;28;20880;-67
2022/12/05 03:45:34;;;;;;;53.27;26.60;;;4.30;99.90;;;;;;5060130;28;20448;-66
2022/12/05 03:48:09;;;;;;;55.30;26.70;;;4.30;99.90;;;;;;5059500;28;20499;-66
2022/12/05 03:50:40;;;;;;;58.00;28.43;;;4.40;99.90;;;;;;5059536;28;20466;-66
2022/12/05 03:53:11;;;;;;;60.43;27.90;;;4.40;99.90;;;;;;5059971;28;20451;-67
2022/12/05 03:55:41;;;;;;;56.30;28.43;;;4.40;99.90;;;;;;5060246;28;20541;-67
2022/12/05 03:58:14;;;;;;;50.33;26.00;;;4.40;99.90;;;;;;5060404;28;20550;-66
2022/12/05 04:00:46;;;;;;;50.27;26.63;;;4.40;99.90;;;;;;5059670;28;20518;-66
2022/12/05 04:03:18;;;;;;;58.97;26.40;;;4.40;99.90;;;;;;5059906;28;20435;-66
2022/12/05 04:05:48;;;;;;;55.30;27.10;;;4.40;99.90;;;;;;5060381;28;20447;-67
2022/12/05 04:08:21;;;;;;;53.07;26.60;;;4.40;99.90;;;;;;5064116;28;20868;-65
2022/12/05 04:10:50;;;;;;;57.20;26.80;;;4.40;99.90;;;;;;5064260;28;20435;-66
2022/12/05 04:13:21;;;;;;;53.17;25.33;;;4.40;99.90;;;;;;5063228;28;20459;-66
2022/12/05 04:18:50;;;;;;;49.57;26.43;;;4.40;99.90;;;;;;5063770;28;20507;-66
2022/12/05 04:21:37;;;;;;;54.20;25.50;;;4.40;99.90;;;;;;5063783;28;20443;-67
2022/12/05 04:27:09;;;;;;;46.27;24.40;;;4.50;99.90;;;;;;5063880;28;20438;-66
2022/12/05 04:29:44;;;;;;;51.53;26.17;;;4.50;99.90;;;;;;5064304;28;20553;-66
2022/12/05 04:32:13;;;;;;;48.00;23.03;;;4.50;99.90;;;;;;5065574;28;20545;-66
2022/12/05 04:34:47;;;;;;;46.60;24.93;;;4.50;99.90;;;;;;5063194;28;20759;-66
2022/12/05 04:37:19;;;;;;;60.23;27.40;;;4.50;99.90;;;;;;5063292;28;20838;-67
2022/12/05 04:39:50;;;;;;;51.43;26.03;;;4.50;99.90;;;;;;5063128;28;20472;-66
2022/12/05 04:42:20;;;;;;;51.30;26.70;;;4.50;99.90;;;;;;5062964;28;20495;-67
2022/12/05 04:44:50;;;;;;;46.40;23.77;;;4.50;99.90;;;;;;5063034;28;20542;-66
2022/12/05 04:47:22;;;;;;;47.20;25.17;;;4.50;99.90;;;;;;5063292;28;20469;-66
2022/12/05 04:49:51;;;;;;;50.20;24.70;;;4.50;99.90;;;;;;5062855;28;20633;-66
2022/12/05 04:52:18;;;;;;;52.83;24.27;;;4.50;99.90;;;;;;5063112;28;20516;-67
2022/12/05 04:54:49;;;;;;;49.63;24.60;;;4.50;99.90;;;;;;5062761;28;20530;-67
2022/12/05 04:57:20;;;;;;;53.23;24.77;;;4.50;99.90;;;;;;5062280;28;20458;-67
2022/12/05 04:59:48;;;;;;;48.73;24.37;;;4.50;99.90;;;;;;5062627;28;20507;-67
2022/12/05 05:02:19;;;;;;;44.50;23.47;;;4.40;99.90;;;;;;5063022;28;20956;-67
2022/12/05 05:04:49;;;;;;;50.47;24.10;;;4.50;99.90;;;;;;5062038;28;20915;-67
2022/12/05 05:07:18;;;;;;;43.93;22.63;;;4.50;99.90;;;;;;5063028;28;20439;-67
2022/12/05 05:09:45;;;;;;;46.67;21.97;;;4.50;99.90;;;;;;5062405;28;20483;-67
2022/12/05 05:12:12;;;;;;;43.00;23.60;;;4.50;99.90;;;;;;5062587;28;20546;-67
2022/12/05 05:14:39;;;;;;;41.60;22.60;;;4.50;99.90;;;;;;5063038;28;20542;-67
2022/12/05 05:17:06;;;;;;;53.53;24.30;;;4.50;99.90;;;;;;5062206;28;20546;-67
2022/12/05 05:19:33;;;;;;;44.13;24.33;;;4.50;99.90;;;;;;5061813;28;20848;-67
2022/12/05 05:22:00;;;;;;;44.37;23.33;;;4.50;99.90;;;;;;5062484;28;20509;-67
2022/12/05 05:24:28;;;;;;;42.60;23.07;;;4.50;99.90;;;;;;5061894;28;20493;-66
2022/12/05 05:26:55;;;;;;;40.00;21.50;;;4.50;99.90;;;;;;5062342;28;20478;-67
2022/12/05 05:29:22;;;;;;;36.40;20.33;;;4.50;99.90;;;;;;5062210;28;20566;-67
2022/12/05 05:31:48;;;;;;;36.60;21.63;;;4.50;99.90;;;;;;5062864;28;20483;-66
2022/12/05 05:34:15;;;;;;;37.33;21.40;;;4.50;99.90;;;;;;5062690;28;20458;-66
2022/12/05 05:36:43;;;;;;;40.47;22.10;;;4.50;99.90;;;;;;5063281;28;20924;-66
2022/12/05 05:39:12;;;;;;;39.50;20.63;;;4.50;99.90;;;;;;5061651;28;20451;-66
2022/12/05 05:41:41;;;;;;;35.40;20.10;;;4.50;99.90;;;;;;5062625;28;20787;-67
2022/12/05 05:44:08;;;;;;;33.13;19.40;;;4.50;99.90;;;;;;5062590;28;20475;-67
2022/12/05 05:46:36;;;;;;;33.10;19.07;;;4.50;99.90;;;;;;5061756;28;20534;-67
2022/12/05 05:49:04;;;;;;;32.73;18.23;;;4.60;99.90;;;;;;5062099;28;20574;-67
2022/12/05 05:51:31;;;;;;;31.03;18.37;;;4.60;99.90;;;;;;5062419;28;20451;-67
2022/12/05 05:53:59;;;;;;;26.43;15.77;;;4.60;99.90;;;;;;5061446;28;20482;-66
2022/12/05 05:56:26;;;;;;;30.87;17.67;;;4.60;99.90;;;;;;5061568;28;20546;-67
2022/12/05 05:58:59;;;;;;;28.53;16.90;;;4.60;99.90;;;;;;5061957;28;20538;-67
2022/12/05 06:01:26;;;;;;;28.97;15.47;;;4.50;99.90;;;;;;5062070;28;20537;-67
2022/12/05 06:03:53;;;;;;;30.03;17.67;;;4.50;99.90;;;;;;5062164;28;20478;-67
2022/12/05 06:06:21;;;;;;;31.13;16.97;;;4.50;99.90;;;;;;5062285;28;20455;-67
2022/12/05 06:08:48;;;;;;;24.50;16.13;;;4.50;99.90;;;;;;5061495;28;20522;-67
2022/12/05 06:11:16;;;;;;;24.17;15.20;;;4.50;99.90;;;;;;5062274;28;20507;-67
2022/12/05 06:13:43;;;;;;;29.03;17.00;;;4.50;99.90;;;;;;5061656;28;20519;-66
2022/12/05 06:16:14;;;;;;;41.17;25.57;;;4.60;99.90;;;;;;5061769;28;20518;-66
2022/12/05 06:18:41;;;;;;;46.00;28.87;;;4.50;99.90;;;;;;5061716;28;20514;-67
2022/12/05 06:21:08;;;;;;;28.33;16.40;;;4.60;99.90;;;;;;5061912;28;20493;-66
2022/12/05 06:23:35;;;;;;;22.60;15.53;;;4.60;99.90;;;;;;5060915;28;20560;-67
2022/12/05 06:26:03;;;;;;;24.47;15.00;;;4.60;99.90;;;;;;5061977;28;20519;-67
2022/12/05 06:28:30;;;;;;;26.80;15.97;;;4.60;99.90;;;;;;5060892;28;20562;-66
2022/12/05 06:30:57;;;;;;;26.77;15.30;;;4.60;99.90;;;;;;5061667;28;20516;-66
2022/12/05 06:33:25;;;;;;;25.30;15.27;;;4.60;99.90;;;;;;5062225;28;20501;-67
2022/12/05 06:36:02;;;;;;;25.33;16.07;;;4.60;99.90;;;;;;5061806;28;20460;-67
2022/12/05 06:38:29;;;;;;;24.03;14.80;;;4.60;99.90;;;;;;5061809;28;20439;-67
2022/12/05 06:40:56;;;;;;;24.97;15.20;;;4.60;99.90;;;;;;5061883;28;20542;-66
2022/12/05 06:43:23;;;;;;;24.90;15.03;;;4.60;99.90;;;;;;5061475;28;21006;-68
2022/12/05 06:45:50;;;;;;;24.57;14.60;;;4.60;99.90;;;;;;5061964;28;20459;-67
2022/12/05 06:48:17;;;;;;;24.90;15.17;;;4.70;99.90;;;;;;5061765;28;20560;-67
2022/12/05 06:50:50;;;;;;;28.40;16.17;;;4.70;99.90;;;;;;5061658;28;20544;-67
2022/12/05 06:53:17;;;;;;;24.80;15.07;;;4.70;99.90;;;;;;5061797;28;20503;-66
2022/12/05 06:55:44;;;;;;;24.63;14.80;;;4.70;99.90;;;;;;5062295;28;20848;-67
2022/12/05 06:58:11;;;;;;;23.50;14.70;;;4.70;99.90;;;;;;5061163;28;20543;-68
2022/12/05 07:03:22;;;;;;;22.73;15.07;;;4.70;99.90;;;;;;5062218;28;20887;-66
2022/12/05 07:05:50;;;;;;;25.03;15.20;;;4.70;99.90;;;;;;5062517;28;20479;-67
2022/12/05 07:08:17;;;;;;;26.73;16.10;;;4.70;99.90;;;;;;5062205;28;20490;-66
2022/12/05 07:10:51;;;;;;;26.40;15.73;;;4.70;99.90;;;;;;5062263;28;20511;-67
2022/12/05 07:13:17;;;;;;;26.90;17.40;;;4.80;99.90;;;;;;5061910;28;20515;-66
2022/12/05 07:15:46;;;;;;;22.60;14.43;;;4.80;99.90;;;;;;5062588;28;20538;-68
2022/12/05 07:18:13;;;;;;;24.80;15.37;;;4.80;99.90;;;;;;5061941;28;20738;-66
2022/12/05 07:20:41;;;;;;;24.30;14.97;;;4.80;99.90;;;;;;5062232;28;20916;-67
2022/12/05 07:23:09;;;;;;;27.80;15.20;;;4.80;99.90;;;;;;5062792;28;20562;-68
2022/12/05 07:25:39;;;;;;;25.10;15.37;;;4.80;99.90;;;;;;5063540;28;20498;-67
2022/12/05 07:28:06;;;;;;;27.47;15.73;;;4.80;99.90;;;;;;5062851;28;20534;-67
2022/12/05 07:30:33;;;;;;;23.80;15.60;;;4.80;99.90;;;;;;5062851;28;20510;-66
2022/12/05 07:33:00;;;;;;;27.50;17.60;;;4.80;99.90;;;;;;5063867;28;20570;-65
2022/12/05 07:35:27;;;;;;;25.33;15.90;;;4.80;99.90;;;;;;5062757;28;20454;-67
2022/12/05 07:37:54;;;;;;;26.03;15.17;;;4.80;99.90;;;;;;5062372;28;20539;-67
2022/12/05 07:40:22;;;;;;;28.80;16.27;;;4.80;99.90;;;;;;5063526;28;20538;-67
2022/12/05 07:42:49;;;;;;;31.33;16.70;;;4.80;99.90;;;;;;5065725;28;20530;-68
2022/12/05 07:45:16;;;;;;;24.90;14.80;;;4.80;99.90;;;;;;5064598;28;20454;-69
2022/12/05 07:47:42;;;;;;;23.70;14.70;;;4.80;99.90;;;;;;5064610;28;20520;-67
2022/12/05 07:50:10;;;;;;;24.70;14.67;;;4.80;99.90;;;;;;5064180;28;20506;-68
2022/12/05 07:52:37;;;;;;;22.43;15.27;;;4.90;99.90;;;;;;5065639;28;20515;-67
2022/12/05 07:55:05;;;;;;;25.37;16.80;;;4.90;99.90;;;;;;5066367;28;20845;-67
2022/12/05 07:57:33;;;;;;;23.63;16.40;;;4.90;99.90;;;;;;5066028;28;20541;-67
2022/12/05 08:00:00;;;;;;;25.90;16.77;;;4.90;99.90;;;;;;5064488;28;20462;-69
2022/12/05 08:02:28;;;;;;;20.97;14.80;;;4.90;99.90;;;;;;5064698;28;20939;-67
2022/12/05 08:04:55;;;;;;;21.43;14.77;;;4.80;99.90;;;;;;5065657;28;20497;-67
2022/12/05 08:07:21;;;;;;;25.27;15.10;;;4.80;99.90;;;;;;5064747;28;20455;-67
2022/12/05 08:09:48;;;;;;;22.27;15.63;;;4.80;99.90;;;;;;5065565;28;20569;-67
2022/12/05 08:12:15;;;;;;;24.30;14.90;;;4.80;99.90;;;;;;5065055;28;20549;-68
2022/12/05 08:14:43;;;;;;;21.53;14.30;;;4.80;99.90;;;;;;5065912;28;20455;-68
2022/12/05 08:17:10;;;;;;;25.03;17.07;;;4.80;99.90;;;;;;5065671;28;20538;-68
2022/12/05 08:19:37;;;;;;;21.23;15.07;;;4.80;99.90;;;;;;5065785;28;20538;-67
2022/12/05 08:22:04;;;;;;;24.73;14.77;;;4.90;99.90;;;;;;5060393;28;20550;-68
2022/12/05 08:24:31;;;;;;;21.90;14.20;;;4.90;99.90;;;;;;5060564;28;20483;-67
2022/12/05 08:26:57;;;;;;;24.27;16.13;;;4.90;99.90;;;;;;5060922;28;20451;-67
2022/12/05 08:29:24;;;;;;;21.67;14.23;;;4.90;99.90;;;;;;5060289;28;20574;-69
2022/12/05 08:31:52;;;;;;;22.90;14.67;;;4.90;99.90;;;;;;5060098;28;20865;-69
2022/12/05 08:34:20;;;;;;;21.93;14.87;;;4.90;99.90;;;;;;5059921;28;20455;-69
2022/12/05 08:36:47;;;;;;;24.73;16.33;;;4.90;99.90;;;;;;5060415;28;20846;-66
2022/12/05 08:39:16;;;;;;;21.83;15.00;;;4.90;99.90;;;;;;5059919;28;20467;-68
2022/12/05 08:41:44;;;;;;;23.50;15.23;;;4.90;99.90;;;;;;5059344;28;20546;-68
2022/12/05 08:44:15;;;;;;;25.13;15.17;;;5.00;99.90;;;;;;5059758;28;20558;-67
2022/12/05 08:46:43;;;;;;;24.53;16.40;;;5.00;99.90;;;;;;5060402;28;20443;-67
2022/12/05 08:49:12;;;;;;;21.83;14.70;;;5.00;99.90;;;;;;5059210;28;20483;-67
2022/12/05 08:51:40;;;;;;;26.03;15.30;;;5.00;99.90;;;;;;5058097;28;20459;-67
2022/12/05 08:54:06;;;;;;;22.40;14.10;;;5.00;99.90;;;;;;5058724;28;21021;-69
2022/12/05 08:56:34;;;;;;;25.30;15.33;;;5.00;99.90;;;;;;5059340;28;20469;-67
2022/12/05 08:59:01;;;;;;;25.17;14.83;;;5.00;99.90;;;;;;5058983;28;20513;-67
2022/12/05 09:01:30;;;;;;;24.63;15.00;;;5.00;99.90;;;;;;5058408;28;20455;-68
2022/12/05 09:03:59;;;;;;;20.93;15.10;;;5.00;99.90;;;;;;5058517;28;20546;-67
2022/12/05 09:06:28;;;;;;;30.30;18.03;;;5.00;99.90;;;;;;5058469;28;20550;-67
2022/12/05 09:08:56;;;;;;;23.83;15.50;;;5.10;99.90;;;;;;5058254;28;20459;-68
2022/12/05 09:11:25;;;;;;;23.50;14.70;;;5.10;99.90;;;;;;5058816;28;20787;-67
2022/12/05 09:13:53;;;;;;;31.40;14.53;;;5.10;99.90;;;;;;5059511;28;20542;-67
2022/12/05 09:16:23;;;;;;;22.10;15.43;;;5.10;99.90;;;;;;5059199;28;20753;-68
2022/12/05 09:18:51;;;;;;;18.73;14.20;;;5.10;99.90;;;;;;5059029;28;20470;-69
2022/12/05 09:21:20;;;;;;;22.83;13.43;;;5.10;99.90;;;;;;5058501;28;20459;-67
2022/12/05 09:23:49;;;;;;;20.80;13.80;;;5.10;99.90;;;;;;5058162;28;20551;-66
2022/12/05 09:26:18;;;;;;;22.07;14.10;;;5.10;99.90;;;;;;5058230;28;20459;-67
2022/12/05 09:28:45;;;;;;;19.17;13.70;;;5.10;99.90;;;;;;5058989;28;20538;-67
2022/12/05 09:31:14;;;;;;;25.53;15.50;;;5.10;99.90;;;;;;5058273;28;20573;-67
2022/12/05 09:33:41;;;;;;;21.17;14.10;;;5.10;99.90;;;;;;5058565;28;20565;-68
2022/12/05 09:36:12;;;;;;;19.80;13.47;;;5.10;99.90;;;;;;5057842;28;20919;-68
2022/12/05 09:38:39;;;;;;;21.60;15.10;;;5.10;99.90;;;;;;5057970;28;20443;-69
2022/12/05 09:41:16;;;;;;;23.60;15.40;;;5.10;99.90;;;;;;5057258;28;20980;-68
2022/12/05 09:43:52;;;;;;;28.20;17.23;;;5.20;99.90;;;;;;5057432;28;20506;-68
2022/12/05 09:46:28;;;;;;;22.67;14.77;;;5.20;99.90;;;;;;5058210;28;20538;-67
2022/12/05 09:48:56;;;;;;;25.93;15.03;;;5.20;99.90;;;;;;5057336;28;20478;-68
2022/12/05 09:51:24;;;;;;;20.87;14.20;;;5.20;99.90;;;;;;5057721;28;20559;-68
2022/12/05 09:53:52;;;;;;;19.20;14.07;;;5.20;99.90;;;;;;5058132;28;20848;-67
2022/12/05 09:56:25;;;;;;;23.17;14.77;;;5.20;99.90;;;;;;5057977;28;20559;-67
2022/12/05 09:58:53;;;;;;;36.63;22.80;;;5.20;99.90;;;;;;5057663;28;20538;-68
2022/12/05 10:01:27;;;;;;;19.23;14.20;;;5.30;99.90;;;;;;5058625;28;20561;-68
2022/12/05 10:04:17;;;;;;;21.37;13.77;;;5.30;99.90;;;;;;5057614;28;20515;-67
2022/12/05 10:06:51;;;;;;;24.83;13.87;;;5.30;99.90;;;;;;5058909;28;20769;-68
2022/12/05 10:09:33;;;;;;;21.10;13.93;;;5.30;90.10;;;;;;5059415;28;20443;-67
2022/12/05 10:12:10;;;;;;;20.00;14.67;;;5.30;79.50;;;;;;5059038;28;20766;-67
2022/12/05 10:14:45;;;;;;;21.53;14.10;;;5.30;88.90;;;;;;5058524;28;20522;-68
2022/12/05 10:17:22;;;;;;;22.40;14.30;;;5.30;80.70;;;;;;5058444;28;20481;-67
2022/12/05 10:19:52;;;;;;;19.33;14.00;;;5.30;70.30;;;;;;5058516;28;20506;-68
2022/12/05 10:22:25;;;;;;;20.33;13.30;;;5.30;54.10;;;;;;5058479;28;20778;-68
2022/12/05 10:24:55;;;;;;;20.53;14.67;;;5.30;77.30;;;;;;5057341;28;20585;-68
2022/12/05 10:27:30;;;;;;;23.57;14.70;;;5.30;92.20;;;;;;5057309;28;20546;-68
2022/12/05 10:30:02;;;;;;;23.00;15.57;;;5.30;58.70;;;;;;5057161;28;20957;-68
2022/12/05 10:32:32;;;;;;;24.37;15.27;;;5.30;69.40;;;;;;5057488;28;20474;-68
2022/12/05 10:35:14;;;;;;;20.20;14.50;;;5.30;56.50;;;;;;5056984;28;20447;-67
2022/12/05 10:37:44;;;;;;;22.53;14.80;;;5.30;68.70;;;;;;5056815;28;20524;-67
2022/12/05 10:40:12;;;;;;;22.40;14.83;;;5.30;49.70;;;;;;5057025;28;20498;-68
2022/12/05 10:42:41;;;;;;;20.83;14.43;;;5.30;46.50;;;;;;5056732;28;20538;-68
2022/12/05 10:45:14;;;;;;;26.90;15.77;;;5.30;62.70;;;;;;5056622;28;20486;-68
2022/12/05 10:47:41;;;;;;;21.80;15.63;;;5.30;84.70;;;;;;5056709;28;20439;-69
2022/12/05 10:50:24;;;;;;;21.20;14.87;;;5.30;91.70;;;;;;5056207;28;20578;-67
2022/12/05 10:52:53;;;;;;;21.40;14.70;;;5.30;99.90;;;;;;5056839;28;20464;-68
2022/12/05 10:55:20;;;;;;;24.43;14.47;;;5.30;99.90;;;;;;5056895;28;20494;-67
2022/12/05 10:58:07;;;;;;;21.70;15.33;;;5.30;99.90;;;;;;5056997;28;20534;-67
2022/12/05 11:00:34;;;;;;;24.33;14.90;;;5.30;99.90;;;;;;5057784;28;20531;-67
2022/12/05 11:03:04;;;;;;;23.70;15.70;;;5.30;99.90;;;;;;5056271;28;20832;-68
2022/12/05 11:05:39;;;;;;;23.73;15.30;;;5.30;99.90;;;;;;5056628;28;20986;-68
2022/12/05 11:08:06;;;;;;;19.93;15.77;;;5.30;99.90;;;;;;5056630;28;20526;-67
2022/12/05 11:10:36;;;;;;;23.60;15.37;;;5.40;99.90;;;;;;5056336;28;20864;-67
2022/12/05 11:13:15;;;;;;;24.67;15.60;;;5.40;99.90;;;;;;5056502;28;20459;-68
2022/12/05 11:15:46;;;;;;;32.13;20.40;;;5.40;99.90;;;;;;5057831;28;20453;-68
2022/12/05 11:18:28;;;;;;;24.10;15.93;;;5.40;99.90;;;;;;5057188;28;20530;-68
2022/12/05 11:20:55;;;;;;;28.87;15.77;;;5.40;99.90;;;;;;5057640;28;20446;-68
2022/12/05 11:23:27;;;;;;;23.50;15.47;;;5.50;99.90;;;;;;5055751;28;20578;-69
2022/12/05 11:25:56;;;;;;;24.60;14.93;;;5.50;99.90;;;;;;5056098;28;20443;-68
2022/12/05 11:28:35;;;;;;;22.70;15.60;;;5.40;99.90;;;;;;5056511;28;20513;-68
2022/12/05 11:31:07;;;;;;;22.40;14.67;;;5.40;99.90;;;;;;5055830;28;20558;-71
2022/12/05 11:33:36;;;;;;;25.03;15.33;;;5.40;99.90;;;;;;5055651;28;20454;-66
2022/12/05 11:36:11;;;;;;;23.23;15.87;;;5.50;99.90;;;;;;5055828;28;20527;-67
2022/12/05 11:38:40;;;;;;;23.30;15.30;;;5.50;99.90;;;;;;5056249;28;20526;-68
2022/12/05 11:41:39;;;;;;;22.73;15.07;;;5.50;99.90;;;;;;5055711;28;20454;-69
2022/12/05 11:44:25;;;;;;;25.70;15.63;;;5.50;99.90;;;;;;5055649;28;20531;-68
2022/12/05 11:47:00;;;;;;;24.33;15.77;;;5.50;99.90;;;;;;5055808;28;20529;-67
2022/12/05 11:49:44;;;;;;;25.30;14.10;;;5.60;99.90;;;;;;5055832;28;20481;-68
2022/12/05 11:52:24;;;;;;;22.40;15.30;;;5.60;99.90;;;;;;5055898;28;20463;-68
2022/12/05 11:54:56;;;;;;;28.03;16.57;;;5.50;99.90;;;;;;5055624;28;20508;-68
2022/12/05 11:57:34;;;;;;;21.47;14.40;;;5.50;99.90;;;;;;5055900;28;20547;-68
2022/12/05 12:00:12;;;;;;;21.20;15.07;;;5.60;99.90;;;;;;5055595;28;20518;-68
2022/12/05 12:03:10;;;;;;;25.33;16.87;;;5.50;90.40;;;;;;5055853;28;20526;-67
2022/12/05 12:05:42;;;;;;;22.57;15.63;;;5.50;68.60;;;;;;5056384;28;20463;-67
2022/12/05 12:08:21;;;;;;;25.07;15.63;;;5.50;87.50;;;;;;5056446;28;20435;-67
2022/12/05 12:10:58;;;;;;;22.20;14.47;;;5.50;85.10;;;;;;5055517;28;20554;-68
2022/12/05 12:13:41;;;;;;;26.27;17.07;;;5.50;96.80;;;;;;5055904;28;20512;-68
2022/12/05 12:16:15;;;;;;;23.60;16.37;;;5.50;99.90;;;;;;5055906;28;20443;-69
2022/12/05 12:19:02;;;;;;;24.57;17.07;;;5.50;99.90;;;;;;5055789;28;20590;-67
2022/12/05 12:21:37;;;;;;;30.33;16.07;;;5.50;99.90;;;;;;5055401;28;20478;-69
2022/12/05 12:24:15;;;;;;;24.50;16.53;;;5.50;99.90;;;;;;5055708;28;20499;-68
2022/12/05 12:26:56;;;;;;;29.63;17.50;;;5.60;99.90;;;;;;5056325;28;20486;-68
2022/12/05 12:29:41;;;;;;;22.57;14.97;;;5.60;99.90;;;;;;5059039;28;20529;-67
2022/12/05 12:32:21;;;;;;;23.87;16.80;;;5.70;99.90;;;;;;5059063;28;20477;-67
2022/12/05 12:35:02;;;;;;;24.67;16.50;;;5.60;99.90;;;;;;5058860;28;20526;-68
2022/12/05 12:37:37;;;;;;;28.43;16.47;;;5.50;99.90;;;;;;5059078;28;20443;-67
2022/12/05 12:40:14;;;;;;;27.20;18.03;;;5.50;99.90;;;;;;5059394;28;20529;-66
2022/12/05 12:42:50;;;;;;;31.70;19.47;;;5.40;99.90;;;;;;5059284;28;20461;-68
2022/12/05 12:45:44;;;;;;;28.97;17.43;;;5.40;99.90;;;;;;5058220;28;20439;-68
2022/12/05 12:48:33;;;;;;;31.10;19.40;;;5.50;99.90;;;;;;5058725;28;20446;-67
2022/12/05 12:51:02;;;;;;;25.90;16.73;;;5.50;99.90;;;;;;5059446;28;20550;-67
2022/12/05 12:53:44;;;;;;;26.97;18.23;;;5.40;99.90;;;;;;5059263;28;20938;-67
2022/12/05 12:56:23;;;;;;;34.90;20.23;;;5.50;99.90;;;;;;5060114;28;20533;-68
2022/12/05 12:58:54;;;;;;;35.00;19.40;;;5.50;99.90;;;;;;5059801;28;20892;-68
2022/12/05 13:01:31;;;;;;;30.03;19.10;;;5.40;99.90;;;;;;5060519;28;20618;-67
2022/12/05 13:04:05;;;;;;;28.60;17.43;;;5.40;99.90;;;;;;5060104;28;20531;-67